Time;durP1;ratioP1;P1;durP2;ratioP2;P2;SDS_P1;SDS_P2;PMS_P1;PMS_P2;Temp;Humidity;BMP_temperature;BMP_pressure;BME280_temperature;BME280_humidity;BME280_pressure;Samples;Min_cycle;Max_cycle;Signal;HPM_P1;HPM_P2
2024/01/14 00:01:57;;;;;;;1.17;1.17;;;6.50;99.90;;;;;;4983102;28;20356;-83
2024/01/14 00:04:24;;;;;;;0.17;0.17;;;6.60;99.90;;;;;;4988701;28;20224;-84
2024/01/14 00:06:50;;;;;;;0.10;0.10;;;6.60;99.90;;;;;;5032753;28;20266;-83
2024/01/14 00:09:19;;;;;;;0.53;0.53;;;6.40;99.90;;;;;;5000128;28;20738;-83
2024/01/14 00:11:45;;;;;;;0.17;0.17;;;5.90;99.90;;;;;;4999855;28;20192;-84
2024/01/14 00:14:10;;;;;;;0.30;0.30;;;5.90;99.90;;;;;;5000529;28;20233;-83
2024/01/14 00:16:36;;;;;;;0.47;0.47;;;5.80;99.90;;;;;;4984131;28;20239;-84
2024/01/14 00:19:03;;;;;;;0.20;0.20;;;5.90;99.90;;;;;;4983215;28;20604;-84
2024/01/14 00:21:29;;;;;;;1.67;1.57;;;5.90;99.90;;;;;;4983005;28;20234;-83
2024/01/14 00:23:55;;;;;;;0.30;0.30;;;6.00;99.90;;;;;;4999152;28;20203;-84
2024/01/14 00:26:24;;;;;;;0.20;0.20;;;5.90;99.90;;;;;;5000761;28;20231;-83
2024/01/14 00:28:52;;;;;;;5.73;0.77;;;5.80;99.90;;;;;;4999515;28;20219;-83
2024/01/14 00:31:18;;;;;;;1.90;0.50;;;5.80;99.90;;;;;;4998851;28;20252;-83
2024/01/14 00:33:43;;;;;;;3.17;0.90;;;5.80;99.90;;;;;;4983059;28;20238;-83
2024/01/14 00:36:10;;;;;;;0.20;0.20;;;5.90;99.90;;;;;;4998243;28;20222;-83
2024/01/14 00:38:36;;;;;;;0.27;0.27;;;5.80;99.90;;;;;;4999726;28;20652;-84
2024/01/14 00:41:01;;;;;;;0.63;0.63;;;6.00;99.90;;;;;;4999183;28;20346;-84
2024/01/14 00:43:27;;;;;;;0.40;0.40;;;6.00;99.90;;;;;;4999766;28;20254;-83
2024/01/14 00:45:53;;;;;;;0.30;0.30;;;6.20;99.90;;;;;;4999112;28;20223;-82
2024/01/14 00:48:19;;;;;;;1.03;0.70;;;5.80;99.90;;;;;;4999579;28;20227;-81
2024/01/14 00:50:45;;;;;;;0.20;0.20;;;5.90;99.90;;;;;;5015805;28;20648;-83
2024/01/14 00:53:11;;;;;;;0.10;0.10;;;5.50;99.90;;;;;;4982860;28;20665;-84
2024/01/14 00:55:37;;;;;;;0.20;0.20;;;5.40;99.90;;;;;;4999868;28;20227;-84
2024/01/14 00:58:03;;;;;;;0.20;0.20;;;5.40;99.90;;;;;;4998256;28;20683;-83
2024/01/14 01:00:30;;;;;;;0.13;0.13;;;5.30;99.90;;;;;;4999531;28;20223;-84
2024/01/14 01:02:56;;;;;;;0.30;0.30;;;5.50;99.90;;;;;;4999458;28;20211;-83
2024/01/14 01:05:21;;;;;;;0.20;0.20;;;5.40;99.90;;;;;;4998697;28;20222;-84
2024/01/14 01:07:47;;;;;;;0.27;0.27;;;5.30;99.90;;;;;;4983470;28;20220;-83
2024/01/14 01:10:13;;;;;;;15.90;2.97;;;5.10;99.90;;;;;;5000485;28;20220;-84
2024/01/14 01:12:39;;;;;;;0.20;0.20;;;5.20;99.90;;;;;;4974085;28;20222;-83
2024/01/14 01:15:06;;;;;;;0.20;0.20;;;5.10;99.90;;;;;;4998628;28;20188;-83
2024/01/14 01:17:32;;;;;;;0.20;0.20;;;5.40;99.90;;;;;;4999051;28;20252;-84
2024/01/14 01:20:02;;;;;;;10.00;1.10;;;5.20;99.90;;;;;;5003003;28;20687;-84
2024/01/14 01:22:28;;;;;;;0.83;0.83;;;5.20;99.90;;;;;;5014846;28;20218;-83
2024/01/14 01:24:54;;;;;;;3.40;0.70;;;5.40;99.90;;;;;;4998034;28;20673;-84
2024/01/14 01:27:20;;;;;;;0.30;0.30;;;5.50;99.90;;;;;;4997756;28;20723;-84
2024/01/14 01:29:46;;;;;;;0.70;0.70;;;5.50;99.90;;;;;;4998430;28;20662;-83
2024/01/14 01:32:12;;;;;;;0.10;0.10;;;5.50;99.90;;;;;;4997593;28;20222;-84
2024/01/14 01:34:37;;;;;;;0.30;0.30;;;5.30;99.90;;;;;;4997822;28;20219;-84
2024/01/14 01:37:04;;;;;;;0.20;0.20;;;5.40;99.90;;;;;;4981997;28;20755;-83
2024/01/14 01:39:31;;;;;;;2.30;0.83;;;5.50;99.90;;;;;;4998368;28;20562;-84
2024/01/14 01:41:57;;;;;;;0.20;0.20;;;5.60;99.90;;;;;;4999222;28;20191;-83
2024/01/14 01:44:24;;;;;;;0.30;0.30;;;5.30;99.90;;;;;;4998372;28;20679;-83
2024/01/14 01:46:50;;;;;;;0.83;0.57;;;5.30;99.90;;;;;;4999364;28;20427;-83
2024/01/14 01:49:16;;;;;;;0.50;0.50;;;5.20;99.90;;;;;;4997788;28;20223;-84
2024/01/14 01:51:49;;;;;;;0.30;0.30;;;5.40;99.90;;;;;;4998599;28;20219;-83
2024/01/14 01:54:21;;;;;;;0.20;0.20;;;5.30;99.90;;;;;;4998383;28;20183;-84
2024/01/14 01:56:48;;;;;;;0.30;0.30;;;5.30;99.90;;;;;;4982219;28;20288;-84
2024/01/14 01:59:15;;;;;;;0.30;0.30;;;5.40;99.90;;;;;;4998886;28;20322;-82
2024/01/14 02:01:41;;;;;;;0.40;0.40;;;5.40;99.90;;;;;;4999859;28;20239;-82
2024/01/14 02:04:07;;;;;;;0.73;0.73;;;5.10;99.90;;;;;;4981061;28;20471;-83
2024/01/14 02:06:33;;;;;;;0.30;0.30;;;5.20;99.90;;;;;;4997794;28;20288;-83
2024/01/14 02:08:59;;;;;;;0.20;0.20;;;5.00;99.90;;;;;;5015226;28;20580;-84
2024/01/14 02:11:25;;;;;;;0.80;0.80;;;5.20;99.90;;;;;;4998386;28;20226;-82
2024/01/14 02:13:51;;;;;;;2.20;0.50;;;5.00;99.90;;;;;;5031029;28;20242;-83
2024/01/14 02:16:17;;;;;;;0.20;0.20;;;5.20;99.90;;;;;;4984005;28;20231;-84
2024/01/14 02:18:42;;;;;;;1.17;0.87;;;5.00;99.90;;;;;;4984960;28;20230;-83
2024/01/14 02:21:15;;;;;;;0.33;0.33;;;5.00;99.90;;;;;;4981685;28;20587;-84
2024/01/14 02:23:45;;;;;;;0.20;0.20;;;5.00;99.90;;;;;;5001096;28;20257;-83
2024/01/14 02:26:11;;;;;;;0.20;0.20;;;5.00;99.90;;;;;;5002697;28;20708;-83
2024/01/14 02:28:38;;;;;;;0.20;0.20;;;5.10;99.90;;;;;;5017667;28;20245;-84
2024/01/14 02:31:04;;;;;;;0.67;0.67;;;4.90;99.90;;;;;;5001421;28;20252;-83
2024/01/14 02:33:29;;;;;;;0.73;0.73;;;5.00;99.90;;;;;;4985632;28;20223;-83
2024/01/14 02:35:55;;;;;;;1.17;1.10;;;5.20;99.90;;;;;;4985610;28;20219;-84
2024/01/14 02:38:21;;;;;;;1.13;1.10;;;5.30;99.90;;;;;;4986231;28;20306;-84
2024/01/14 02:40:47;;;;;;;0.37;0.37;;;5.40;99.90;;;;;;4985551;28;20300;-83
2024/01/14 02:43:12;;;;;;;0.13;0.13;;;5.40;99.90;;;;;;5001085;28;20215;-83
2024/01/14 02:45:38;;;;;;;0.30;0.30;;;5.40;99.90;;;;;;5002067;28;20235;-84
2024/01/14 02:48:04;;;;;;;2.00;1.80;;;5.40;99.90;;;;;;5017040;28;20592;-83
2024/01/14 02:50:30;;;;;;;0.83;0.83;;;5.20;99.90;;;;;;5001860;28;20703;-83
2024/01/14 02:52:55;;;;;;;0.67;0.67;;;5.20;99.90;;;;;;5000865;28;20223;-83
2024/01/14 02:55:21;;;;;;;0.53;0.53;;;5.20;99.90;;;;;;5001554;28;20231;-83
2024/01/14 02:57:48;;;;;;;2.50;1.20;;;5.10;99.90;;;;;;5001940;28;20221;-83
2024/01/14 03:00:15;;;;;;;1.73;1.70;;;5.20;99.90;;;;;;5002209;28;20358;-84
2024/01/14 03:02:41;;;;;;;0.20;0.20;;;5.30;99.90;;;;;;5002478;28;20202;-84
2024/01/14 03:05:07;;;;;;;0.40;0.40;;;5.50;99.90;;;;;;5001419;28;20797;-82
2024/01/14 03:07:33;;;;;;;0.30;0.30;;;5.50;99.90;;;;;;4959720;28;20229;-83
2024/01/14 03:09:58;;;;;;;2.33;0.80;;;5.40;99.90;;;;;;5001460;28;20227;-84
2024/01/14 03:12:24;;;;;;;0.37;0.37;;;5.30;99.90;;;;;;5001023;28;20242;-83
2024/01/14 03:14:50;;;;;;;0.20;0.20;;;5.30;99.90;;;;;;5002320;28;20204;-83
2024/01/14 03:17:15;;;;;;;0.37;0.37;;;5.30;99.90;;;;;;4984025;28;20725;-83
2024/01/14 03:19:41;;;;;;;0.20;0.20;;;5.60;99.90;;;;;;5000738;28;21014;-83
2024/01/14 03:22:07;;;;;;;0.20;0.20;;;5.40;99.90;;;;;;4984072;28;20221;-83
2024/01/14 03:24:33;;;;;;;0.30;0.30;;;5.50;99.90;;;;;;5017357;28;20227;-83
2024/01/14 03:26:58;;;;;;;0.20;0.20;;;5.50;99.90;;;;;;5000891;28;20195;-83
2024/01/14 03:29:24;;;;;;;0.30;0.30;;;5.40;99.90;;;;;;4981637;28;20216;-84
2024/01/14 03:31:50;;;;;;;0.50;0.50;;;5.40;99.90;;;;;;4965197;28;20690;-83
2024/01/14 03:34:16;;;;;;;1.70;1.60;;;5.30;99.90;;;;;;4996969;28;20366;-83
2024/01/14 03:36:41;;;;;;;0.20;0.20;;;5.20;99.90;;;;;;5001030;28;20250;-84
2024/01/14 03:39:07;;;;;;;4.03;0.70;;;5.30;99.90;;;;;;5016463;28;20719;-84
2024/01/14 03:41:33;;;;;;;0.30;0.30;;;5.20;99.90;;;;;;5000749;28;20202;-83
2024/01/14 03:43:59;;;;;;;0.30;0.30;;;4.90;99.90;;;;;;5000278;28;21099;-83
2024/01/14 03:46:24;;;;;;;2.77;1.37;;;5.10;99.90;;;;;;5000649;28;20281;-83
2024/01/14 03:48:50;;;;;;;0.20;0.20;;;5.00;99.90;;;;;;4991773;28;20239;-83
2024/01/14 03:51:16;;;;;;;0.30;0.30;;;4.80;99.90;;;;;;4983856;28;20705;-83
2024/01/14 03:53:42;;;;;;;2.07;0.40;;;4.90;99.90;;;;;;5001274;28;21112;-83
2024/01/14 03:56:07;;;;;;;0.20;0.20;;;4.90;99.90;;;;;;5000053;28;20682;-82
2024/01/14 03:58:33;;;;;;;0.47;0.47;;;4.80;99.90;;;;;;5000250;28;20668;-83
2024/01/14 04:00:59;;;;;;;2.00;1.13;;;4.70;99.90;;;;;;4983362;28;20250;-83
2024/01/14 04:03:24;;;;;;;0.47;0.47;;;4.80;99.90;;;;;;5015724;28;20230;-83
2024/01/14 04:05:50;;;;;;;0.20;0.20;;;4.70;99.90;;;;;;5016720;28;20191;-82
2024/01/14 04:08:16;;;;;;;2.53;2.30;;;4.60;99.90;;;;;;5016125;28;20617;-83
2024/01/14 04:10:42;;;;;;;0.47;0.47;;;4.60;99.90;;;;;;5000793;28;20229;-83
2024/01/14 04:13:07;;;;;;;0.50;0.50;;;4.50;99.90;;;;;;4999297;28;20226;-83
2024/01/14 04:15:33;;;;;;;4.50;1.27;;;4.60;99.90;;;;;;5000031;28;20614;-83
2024/01/14 04:17:59;;;;;;;0.50;0.50;;;4.80;99.90;;;;;;4983900;28;20192;-83
2024/01/14 04:20:25;;;;;;;0.30;0.30;;;4.70;99.90;;;;;;4999056;28;20609;-83
2024/01/14 04:22:50;;;;;;;0.20;0.20;;;4.60;99.90;;;;;;4983771;28;20219;-83
2024/01/14 04:25:16;;;;;;;2.83;1.13;;;4.80;99.90;;;;;;4998558;28;20310;-84
2024/01/14 04:27:42;;;;;;;0.30;0.30;;;4.70;99.90;;;;;;5000369;28;20598;-83
2024/01/14 04:30:08;;;;;;;0.67;0.67;;;4.90;99.90;;;;;;4998989;28;20202;-83
2024/01/14 04:32:35;;;;;;;0.23;0.23;;;5.00;99.90;;;;;;5000743;28;20196;-83
2024/01/14 04:35:00;;;;;;;0.50;0.50;;;4.80;99.90;;;;;;4999377;28;20231;-83
2024/01/14 04:37:26;;;;;;;0.20;0.20;;;4.90;99.90;;;;;;4999410;28;21042;-85
2024/01/14 04:39:53;;;;;;;0.50;0.50;;;5.10;99.90;;;;;;5000609;28;20311;-83
2024/01/14 04:42:19;;;;;;;0.50;0.40;;;5.00;99.90;;;;;;4983290;28;20233;-83
2024/01/14 04:44:45;;;;;;;0.30;0.30;;;5.30;99.90;;;;;;4986328;28;20184;-83
2024/01/14 04:47:10;;;;;;;0.93;0.93;;;5.20;99.90;;;;;;4983454;28;20235;-83
2024/01/14 04:49:36;;;;;;;1.67;1.67;;;5.10;99.90;;;;;;4998979;28;20222;-83
2024/01/14 04:52:02;;;;;;;1.63;1.50;;;5.30;99.90;;;;;;4998724;28;20528;-83
2024/01/14 04:54:28;;;;;;;0.30;0.30;;;5.20;99.90;;;;;;4983129;28;20219;-83
2024/01/14 04:56:54;;;;;;;0.50;0.50;;;5.40;99.90;;;;;;4999875;28;20230;-82
2024/01/14 04:59:19;;;;;;;0.47;0.47;;;5.40;99.90;;;;;;4998316;28;20226;-84
2024/01/14 05:01:45;;;;;;;1.90;0.97;;;5.50;99.90;;;;;;4999241;28;20577;-83
2024/01/14 05:04:12;;;;;;;0.20;0.20;;;5.50;99.90;;;;;;4998233;28;20249;-84
2024/01/14 05:06:38;;;;;;;0.50;0.50;;;5.30;99.90;;;;;;4998477;28;20227;-83
2024/01/14 05:09:03;;;;;;;1.50;0.63;;;5.30;99.90;;;;;;4998905;28;20245;-83
2024/01/14 05:11:29;;;;;;;3.03;1.37;;;5.20;99.90;;;;;;4999656;28;20195;-83
2024/01/14 05:13:55;;;;;;;3.10;0.90;;;5.20;99.90;;;;;;5021230;28;20317;-83
2024/01/14 05:16:20;;;;;;;0.30;0.30;;;5.00;99.90;;;;;;4998728;28;20231;-83
2024/01/14 05:18:46;;;;;;;2.53;0.50;;;5.20;99.90;;;;;;5000348;28;20215;-83
2024/01/14 05:21:16;;;;;;;0.37;0.37;;;5.00;99.90;;;;;;4981871;28;20198;-83
2024/01/14 05:23:42;;;;;;;0.40;0.40;;;4.90;99.90;;;;;;5015004;28;20195;-83
2024/01/14 05:26:08;;;;;;;0.30;0.30;;;4.90;99.90;;;;;;4982822;28;20239;-82
2024/01/14 05:28:34;;;;;;;0.70;0.70;;;4.90;99.90;;;;;;4997921;28;20215;-83
2024/01/14 05:30:59;;;;;;;1.17;0.30;;;4.70;99.90;;;;;;4981926;28;20223;-83
2024/01/14 05:33:25;;;;;;;0.30;0.30;;;5.00;99.90;;;;;;4981886;28;20704;-83
2024/01/14 05:35:51;;;;;;;0.20;0.20;;;4.90;99.90;;;;;;4998887;28;20621;-82
2024/01/14 05:38:17;;;;;;;1.80;1.70;;;4.90;99.90;;;;;;4997680;28;20691;-83
2024/01/14 05:40:43;;;;;;;0.30;0.30;;;4.80;99.90;;;;;;4998012;28;20225;-83
2024/01/14 05:43:08;;;;;;;0.30;0.30;;;5.00;99.90;;;;;;4982216;28;20227;-83
2024/01/14 05:45:34;;;;;;;0.30;0.30;;;5.20;99.90;;;;;;4981377;28;20345;-83
2024/01/14 05:48:00;;;;;;;1.07;0.97;;;5.10;99.90;;;;;;5014722;28;20195;-83
2024/01/14 05:50:26;;;;;;;0.93;0.93;;;5.00;99.90;;;;;;4998704;28;20631;-83
2024/01/14 05:52:51;;;;;;;0.30;0.30;;;5.10;99.90;;;;;;4997847;28;20262;-84
2024/01/14 05:55:17;;;;;;;6.03;0.70;;;4.90;99.90;;;;;;4998051;28;20791;-83
2024/01/14 05:57:43;;;;;;;2.03;1.23;;;4.90;99.90;;;;;;4997473;28;20231;-83
2024/01/14 06:00:09;;;;;;;0.30;0.30;;;5.10;99.90;;;;;;4981457;28;20751;-83
2024/01/14 06:02:37;;;;;;;0.53;0.40;;;4.90;99.90;;;;;;5014047;28;20274;-83
2024/01/14 06:05:03;;;;;;;5.50;3.37;;;4.90;99.90;;;;;;4998073;28;20612;-82
2024/01/14 06:07:29;;;;;;;3.20;1.80;;;4.80;99.90;;;;;;4997955;28;20219;-82
2024/01/14 06:09:55;;;;;;;0.70;0.70;;;4.90;99.90;;;;;;4998437;28;20231;-83
2024/01/14 06:12:20;;;;;;;0.23;0.23;;;4.80;99.90;;;;;;5013339;28;21050;-84
2024/01/14 06:14:46;;;;;;;0.30;0.30;;;4.60;99.90;;;;;;4999164;28;20194;-83
2024/01/14 06:17:12;;;;;;;0.33;0.33;;;4.50;99.90;;;;;;4998695;28;20349;-83
2024/01/14 06:19:40;;;;;;;2.07;0.83;;;4.50;99.90;;;;;;4998374;28;20223;-83
2024/01/14 06:22:06;;;;;;;1.40;1.13;;;4.60;99.90;;;;;;4998024;28;20290;-83
2024/01/14 06:24:32;;;;;;;0.30;0.30;;;4.50;99.90;;;;;;4997346;28;20657;-82
2024/01/14 06:26:57;;;;;;;2.50;2.43;;;4.70;99.90;;;;;;4999718;28;20283;-82
2024/01/14 06:29:24;;;;;;;0.27;0.27;;;4.80;99.90;;;;;;4997546;28;20735;-83
2024/01/14 06:31:49;;;;;;;0.50;0.50;;;4.60;99.90;;;;;;5015149;28;20207;-83
2024/01/14 06:34:15;;;;;;;0.30;0.30;;;4.90;99.90;;;;;;4997614;28;20219;-83
2024/01/14 06:36:41;;;;;;;3.17;1.00;;;4.70;99.90;;;;;;4997629;28;20626;-82
2024/01/14 06:39:07;;;;;;;0.97;0.67;;;4.80;99.90;;;;;;4998496;28;20195;-83
2024/01/14 06:41:34;;;;;;;0.40;0.40;;;4.70;99.90;;;;;;4981638;28;20648;-84
2024/01/14 06:43:59;;;;;;;0.67;0.50;;;4.70;99.90;;;;;;4981209;28;20314;-84
2024/01/14 06:46:25;;;;;;;11.03;1.50;;;4.80;99.90;;;;;;4997709;28;20279;-83
2024/01/14 06:48:51;;;;;;;0.40;0.40;;;4.70;99.90;;;;;;4997102;28;20317;-83
2024/01/14 06:51:17;;;;;;;0.63;0.63;;;4.70;99.90;;;;;;4997280;28;20283;-83
2024/01/14 06:53:42;;;;;;;0.40;0.40;;;4.80;99.90;;;;;;4998073;28;20195;-83
2024/01/14 06:56:08;;;;;;;1.23;1.23;;;4.70;99.90;;;;;;4997865;28;21139;-83
2024/01/14 06:58:34;;;;;;;0.30;0.30;;;4.80;99.90;;;;;;4997628;28;20326;-84
2024/01/14 07:01:02;;;;;;;2.30;0.57;;;5.00;99.90;;;;;;5014018;28;21249;-84
2024/01/14 07:03:29;;;;;;;4.73;0.90;;;4.90;99.90;;;;;;5030129;28;20219;-84
2024/01/14 07:05:55;;;;;;;0.30;0.30;;;5.00;99.90;;;;;;4998231;28;20198;-84
2024/01/14 07:08:20;;;;;;;5.40;1.33;;;4.90;99.90;;;;;;4998357;28;20315;-84
2024/01/14 07:10:46;;;;;;;0.20;0.20;;;4.90;99.90;;;;;;4990673;28;20319;-83
2024/01/14 07:13:13;;;;;;;0.30;0.30;;;5.10;99.90;;;;;;5016178;28;20231;-84
2024/01/14 07:15:39;;;;;;;0.30;0.30;;;5.10;99.90;;;;;;4999462;28;20231;-84
2024/01/14 07:18:04;;;;;;;0.73;0.67;;;5.00;99.90;;;;;;4984501;28;20193;-83
2024/01/14 07:20:30;;;;;;;0.83;0.83;;;5.10;99.90;;;;;;4985542;28;20191;-84
2024/01/14 07:22:56;;;;;;;0.27;0.27;;;5.20;99.90;;;;;;5000492;28;20810;-84
2024/01/14 07:25:22;;;;;;;0.20;0.20;;;5.00;99.90;;;;;;4984381;28;20289;-84
2024/01/14 07:27:48;;;;;;;0.27;0.27;;;5.20;99.90;;;;;;5000674;28;20277;-82
2024/01/14 07:30:17;;;;;;;0.20;0.20;;;5.10;99.90;;;;;;5022794;28;20647;-82
2024/01/14 07:32:43;;;;;;;0.30;0.30;;;5.00;99.90;;;;;;5017952;28;20194;-83
2024/01/14 07:35:09;;;;;;;0.40;0.40;;;5.00;99.90;;;;;;4984085;28;20929;-82
2024/01/14 07:37:35;;;;;;;0.43;0.43;;;5.00;99.90;;;;;;4984323;28;20306;-83
2024/01/14 07:40:01;;;;;;;0.23;0.23;;;5.10;99.90;;;;;;5000141;28;20269;-82
2024/01/14 07:42:27;;;;;;;0.40;0.40;;;4.90;99.90;;;;;;5016963;28;20240;-83
2024/01/14 07:44:53;;;;;;;0.40;0.40;;;4.80;99.90;;;;;;5000786;28;20191;-83
2024/01/14 07:47:20;;;;;;;1.70;0.80;;;4.90;99.90;;;;;;4982844;28;20235;-84
2024/01/14 07:49:48;;;;;;;7.40;0.83;;;4.90;99.90;;;;;;4999986;28;20573;-83
2024/01/14 07:52:17;;;;;;;0.20;0.20;;;5.10;99.90;;;;;;5000291;28;20223;-82
2024/01/14 07:54:43;;;;;;;9.03;0.73;;;4.90;99.90;;;;;;4983729;28;20223;-83
2024/01/14 07:57:10;;;;;;;0.23;0.23;;;4.80;99.90;;;;;;5000280;28;20507;-82
2024/01/14 07:59:36;;;;;;;0.30;0.30;;;4.80;99.90;;;;;;5017081;28;20231;-83
2024/01/14 08:02:02;;;;;;;0.30;0.30;;;5.00;99.90;;;;;;4998150;28;20226;-82
2024/01/14 08:04:28;;;;;;;0.20;0.20;;;4.80;99.90;;;;;;4997714;28;20226;-83
2024/01/14 08:06:54;;;;;;;0.80;0.80;;;4.80;99.90;;;;;;4998622;28;20689;-83
2024/01/14 08:09:20;;;;;;;0.47;0.47;;;4.90;99.90;;;;;;5031200;28;20227;-83
2024/01/14 08:11:46;;;;;;;0.30;0.30;;;4.90;99.90;;;;;;5000181;28;20494;-83
2024/01/14 08:14:11;;;;;;;0.30;0.30;;;5.00;99.90;;;;;;5031815;28;20336;-82
2024/01/14 08:16:37;;;;;;;0.20;0.20;;;5.00;99.90;;;;;;4999039;28;20250;-83
2024/01/14 08:19:03;;;;;;;1.33;0.60;;;4.80;99.90;;;;;;4999619;28;20227;-82
2024/01/14 08:21:29;;;;;;;0.53;0.53;;;4.70;99.90;;;;;;4991178;28;20211;-82
2024/01/14 08:23:55;;;;;;;0.27;0.27;;;4.90;99.90;;;;;;4982584;28;20202;-83
2024/01/14 08:26:20;;;;;;;1.97;1.37;;;4.80;99.90;;;;;;4981434;28;20227;-82
2024/01/14 08:28:46;;;;;;;1.40;0.40;;;4.70;99.90;;;;;;4998731;28;20223;-82
2024/01/14 08:31:12;;;;;;;2.93;1.70;;;4.60;99.90;;;;;;4998876;28;20226;-82
2024/01/14 08:33:41;;;;;;;5.30;1.20;;;4.50;99.90;;;;;;4999188;28;20590;-81
2024/01/14 08:36:09;;;;;;;1.33;1.23;;;4.60;99.90;;;;;;4998604;28;20780;-82
2024/01/14 08:38:35;;;;;;;1.93;1.50;;;4.60;99.90;;;;;;4998708;28;20230;-82
2024/01/14 08:41:01;;;;;;;0.97;0.97;;;4.70;99.90;;;;;;4983726;28;20230;-82
2024/01/14 08:43:26;;;;;;;0.83;0.80;;;4.80;99.90;;;;;;4997765;28;20219;-82
2024/01/14 08:45:52;;;;;;;0.50;0.50;;;4.80;99.90;;;;;;5014559;28;20338;-82
2024/01/14 08:48:18;;;;;;;5.10;1.23;;;4.70;99.90;;;;;;4999010;28;20199;-82
2024/01/14 08:50:44;;;;;;;2.67;1.07;;;4.80;99.90;;;;;;4999013;28;20578;-82
2024/01/14 08:53:09;;;;;;;0.50;0.50;;;4.60;99.90;;;;;;4982029;28;20622;-83
2024/01/14 08:55:35;;;;;;;0.17;0.17;;;4.80;99.90;;;;;;4998080;28;20243;-82
2024/01/14 08:58:01;;;;;;;0.60;0.60;;;4.60;99.90;;;;;;4982223;28;20952;-81
2024/01/14 09:00:27;;;;;;;0.30;0.30;;;4.60;99.90;;;;;;4998877;28;20198;-82
2024/01/14 09:02:52;;;;;;;0.33;0.33;;;4.70;99.90;;;;;;4982672;28;20191;-82
2024/01/14 09:05:18;;;;;;;0.20;0.20;;;4.70;99.90;;;;;;4981213;28;20304;-82
2024/01/14 09:07:44;;;;;;;2.37;0.77;;;4.80;99.90;;;;;;4981419;28;20236;-82
2024/01/14 09:10:10;;;;;;;0.53;0.50;;;4.90;99.90;;;;;;4998162;28;20254;-82
2024/01/14 09:12:36;;;;;;;0.33;0.33;;;4.70;99.90;;;;;;4979192;28;20232;-82
2024/01/14 09:15:02;;;;;;;1.90;0.93;;;4.90;99.90;;;;;;4968883;28;20224;-82
2024/01/14 09:17:28;;;;;;;0.40;0.40;;;5.00;99.90;;;;;;4996876;28;20894;-82
2024/01/14 09:19:53;;;;;;;3.27;1.07;;;4.80;99.90;;;;;;4959364;28;20422;-83
2024/01/14 09:22:19;;;;;;;1.53;1.47;;;4.90;99.90;;;;;;4967660;28;20235;-82
2024/01/14 09:24:46;;;;;;;24.10;2.47;;;5.00;99.90;;;;;;4997489;28;20220;-82
2024/01/14 09:27:13;;;;;;;0.20;0.20;;;4.90;99.90;;;;;;4983798;28;20689;-81
2024/01/14 09:29:40;;;;;;;0.20;0.20;;;4.90;99.90;;;;;;4982207;28;20231;-82
2024/01/14 09:32:06;;;;;;;15.53;0.67;;;4.90;99.90;;;;;;4997185;28;20246;-82
2024/01/14 09:34:31;;;;;;;5.10;0.77;;;5.10;99.90;;;;;;4997014;28;20227;-82
2024/01/14 09:36:57;;;;;;;0.27;0.27;;;4.90;99.90;;;;;;4997789;28;20231;-83
2024/01/14 09:39:23;;;;;;;5.33;0.47;;;5.10;99.90;;;;;;4998206;28;20653;-82
2024/01/14 09:42:12;;;;;;;0.20;0.20;;;5.30;99.90;;;;;;4982111;28;20681;-82
2024/01/14 09:44:39;;;;;;;0.20;0.20;;;5.30;99.90;;;;;;4998342;28;20219;-83
2024/01/14 09:47:08;;;;;;;1.63;0.67;;;5.20;99.90;;;;;;4997202;28;20219;-83
2024/01/14 09:49:35;;;;;;;1.37;1.27;;;5.40;99.90;;;;;;4998424;28;20211;-83
2024/01/14 09:52:04;;;;;;;1.60;1.60;;;5.40;99.90;;;;;;4998910;28;20227;-84
2024/01/14 09:54:30;;;;;;;0.73;0.73;;;5.40;99.90;;;;;;5030888;28;20222;-83
2024/01/14 09:56:59;;;;;;;13.23;0.70;;;5.50;99.90;;;;;;4997972;28;20207;-82
2024/01/14 09:59:27;;;;;;;0.30;0.30;;;5.60;99.90;;;;;;4997898;28;20784;-82
2024/01/14 10:01:54;;;;;;;3.60;1.10;;;5.50;99.90;;;;;;4997309;28;20227;-83
2024/01/14 10:04:20;;;;;;;0.20;0.20;;;5.50;99.90;;;;;;4997727;28;20289;-83
2024/01/14 10:06:47;;;;;;;0.37;0.37;;;5.60;99.90;;;;;;4980721;28;20218;-82
2024/01/14 10:09:13;;;;;;;0.43;0.43;;;5.80;99.90;;;;;;4981581;28;20196;-82
2024/01/14 10:11:39;;;;;;;4.67;1.80;;;6.00;99.90;;;;;;4997883;28;20199;-82
2024/01/14 10:14:04;;;;;;;0.80;0.60;;;6.00;99.90;;;;;;4980522;28;20729;-83
2024/01/14 10:16:30;;;;;;;0.20;0.20;;;6.30;99.90;;;;;;4981068;28;20292;-83
2024/01/14 10:18:56;;;;;;;0.60;0.60;;;6.30;99.90;;;;;;4979875;28;20237;-83
2024/01/14 10:21:23;;;;;;;0.50;0.27;;;6.20;99.90;;;;;;4981343;28;20199;-83
2024/01/14 10:23:54;;;;;;;0.40;0.40;;;6.30;99.90;;;;;;5028634;28;20606;-83
2024/01/14 10:26:22;;;;;;;0.83;0.83;;;6.30;99.90;;;;;;4998797;28;20223;-83
2024/01/14 10:28:48;;;;;;;0.60;0.60;;;6.50;99.90;;;;;;4997033;28;20227;-83
2024/01/14 10:31:14;;;;;;;3.03;0.63;;;6.60;99.90;;;;;;4997563;28;20223;-83
2024/01/14 10:33:39;;;;;;;0.30;0.30;;;6.80;99.90;;;;;;4980403;28;20241;-83
2024/01/14 10:36:08;;;;;;;2.47;0.47;;;6.90;99.90;;;;;;4980395;28;20281;-83
2024/01/14 10:38:35;;;;;;;0.30;0.30;;;6.80;99.90;;;;;;4997099;28;20307;-83
2024/01/14 10:41:01;;;;;;;0.20;0.20;;;6.60;99.90;;;;;;4998153;28;20230;-82
2024/01/14 10:43:28;;;;;;;1.13;1.13;;;6.50;99.90;;;;;;4996893;28;20473;-82
2024/01/14 10:45:55;;;;;;;0.20;0.20;;;6.40;99.90;;;;;;5001188;28;20285;-83
2024/01/14 10:48:26;;;;;;;0.70;0.70;;;6.30;99.90;;;;;;5001329;28;20597;-82
2024/01/14 10:50:57;;;;;;;0.60;0.60;;;6.20;99.90;;;;;;5000506;28;20826;-85
2024/01/14 10:53:33;;;;;;;0.60;0.60;;;6.20;99.90;;;;;;5002059;28;20218;-84
2024/01/14 10:56:05;;;;;;;0.30;0.30;;;6.20;99.90;;;;;;5004089;28;20952;-85
2024/01/14 10:58:35;;;;;;;0.40;0.40;;;6.30;99.90;;;;;;5001896;28;20369;-85
2024/01/14 11:01:06;;;;;;;0.20;0.20;;;6.20;99.90;;;;;;5002092;28;20646;-85
2024/01/14 11:03:33;;;;;;;0.43;0.43;;;6.30;99.90;;;;;;5003610;28;20231;-86
2024/01/14 11:06:00;;;;;;;0.20;0.20;;;6.40;99.90;;;;;;5010876;28;20200;-85
2024/01/14 11:08:27;;;;;;;0.27;0.27;;;6.40;99.90;;;;;;5008460;28;20242;-85
2024/01/14 11:10:54;;;;;;;20.77;3.13;;;6.40;99.90;;;;;;5033361;28;20219;-82
2024/01/14 11:13:28;;;;;;;0.30;0.30;;;6.40;99.90;;;;;;5000326;28;20261;-83
2024/01/14 11:16:07;;;;;;;0.63;0.63;;;6.30;99.90;;;;;;4999575;28;20317;-82
2024/01/14 11:18:43;;;;;;;4.33;3.10;;;6.30;99.90;;;;;;5000472;28;20230;-83
2024/01/14 11:21:23;;;;;;;0.30;0.30;;;6.40;99.90;;;;;;5001029;28;20589;-81
2024/01/14 11:23:52;;;;;;;0.30;0.30;;;6.40;99.90;;;;;;4987910;28;20214;-82
2024/01/14 11:26:18;;;;;;;0.77;0.77;;;6.40;99.90;;;;;;4983857;28;20223;-83
2024/01/14 11:28:45;;;;;;;0.50;0.50;;;6.40;99.90;;;;;;5000733;28;20726;-81
2024/01/14 11:31:11;;;;;;;8.30;0.70;;;6.30;99.90;;;;;;5002097;28;20249;-83
2024/01/14 11:33:42;;;;;;;0.30;0.30;;;6.30;99.90;;;;;;5015329;28;20513;-82
2024/01/14 11:36:09;;;;;;;0.40;0.40;;;6.30;99.90;;;;;;4999913;28;20229;-82
2024/01/14 11:38:37;;;;;;;0.20;0.20;;;6.30;99.90;;;;;;5000127;28;20227;-82
2024/01/14 11:41:28;;;;;;;0.20;0.20;;;6.40;99.90;;;;;;4983721;28;20234;-83
2024/01/14 11:43:57;;;;;;;0.30;0.30;;;6.40;99.90;;;;;;5014636;28;20226;-83
2024/01/14 11:46:46;;;;;;;0.30;0.30;;;6.30;99.90;;;;;;5000625;28;20715;-82
2024/01/14 11:49:21;;;;;;;0.30;0.30;;;6.30;99.90;;;;;;4999807;28;20265;-83
2024/01/14 11:51:59;;;;;;;0.10;0.10;;;6.20;99.90;;;;;;5030371;28;20262;-84
2024/01/14 11:54:25;;;;;;;0.20;0.20;;;6.30;99.90;;;;;;4999858;28;20237;-83
2024/01/14 11:56:52;;;;;;;0.23;0.23;;;6.30;99.90;;;;;;4999335;28;20577;-83
2024/01/14 11:59:17;;;;;;;0.30;0.30;;;6.20;99.90;;;;;;4982102;28;20231;-84
2024/01/14 12:01:43;;;;;;;0.67;0.67;;;6.20;99.90;;;;;;4983421;28;20747;-83
2024/01/14 12:04:10;;;;;;;0.30;0.30;;;6.20;99.90;;;;;;5000204;28;20410;-84
2024/01/14 12:06:40;;;;;;;2.23;0.70;;;6.30;99.90;;;;;;5000291;28;20223;-83
2024/01/14 12:09:07;;;;;;;1.13;1.03;;;6.30;99.90;;;;;;4999992;28;20219;-83
2024/01/14 12:11:33;;;;;;;0.50;0.50;;;6.40;99.90;;;;;;4999740;28;20514;-83
2024/01/14 12:13:59;;;;;;;1.13;0.73;;;6.40;99.90;;;;;;5000675;28;20215;-83
2024/01/14 12:16:29;;;;;;;0.10;0.10;;;6.60;99.90;;;;;;4998574;28;20662;-83
2024/01/14 12:18:55;;;;;;;15.10;0.80;;;6.90;99.90;;;;;;4998748;28;20515;-83
2024/01/14 12:21:22;;;;;;;0.23;0.23;;;7.00;99.90;;;;;;5000143;28;20644;-83
2024/01/14 12:23:49;;;;;;;0.23;0.23;;;7.00;99.90;;;;;;4997792;28;20199;-83
2024/01/14 12:26:15;;;;;;;0.30;0.30;;;6.70;99.90;;;;;;4980706;28;20790;-82
2024/01/14 12:28:44;;;;;;;0.20;0.20;;;6.70;99.90;;;;;;4980483;28;20250;-83
2024/01/14 12:31:21;;;;;;;0.27;0.27;;;6.70;99.90;;;;;;4996521;28;20211;-84
2024/01/14 12:33:48;;;;;;;0.20;0.20;;;6.70;99.90;;;;;;5011254;28;20215;-84
2024/01/14 12:36:14;;;;;;;0.77;0.30;;;6.80;99.90;;;;;;5018904;28;20211;-83
2024/01/14 12:38:43;;;;;;;0.10;0.10;;;6.70;99.90;;;;;;5027240;28;20196;-83
2024/01/14 12:41:11;;;;;;;0.93;0.60;;;6.80;99.90;;;;;;5013169;28;20227;-83
2024/01/14 12:43:37;;;;;;;0.83;0.77;;;6.90;99.90;;;;;;4996465;28;20775;-84
2024/01/14 12:46:04;;;;;;;0.50;0.50;;;7.00;99.90;;;;;;5011902;28;20238;-84
2024/01/14 12:48:42;;;;;;;0.20;0.20;;;7.10;99.90;;;;;;4996138;28;20215;-83
2024/01/14 12:51:08;;;;;;;5.20;0.40;;;7.20;99.90;;;;;;4988886;28;20211;-83
2024/01/14 12:53:34;;;;;;;0.30;0.30;;;7.10;99.90;;;;;;4996835;28;20290;-83
2024/01/14 12:56:35;;;;;;;0.30;0.30;;;6.90;99.90;;;;;;4994925;28;20691;-83